Time;durP1;ratioP1;P1;durP2;ratioP2;P2;SDS_P1;SDS_P2;PMS_P1;PMS_P2;Temp;Humidity;BMP_temperature;BMP_pressure;BME280_temperature;BME280_humidity;BME280_pressure;Samples;Min_cycle;Max_cycle;Signal;HPM_P1;HPM_P2
2023/07/27 00:00:13;;;;;;;1.87;1.77;;;;;;;;;;5033256;28;20506;-61
2023/07/27 00:02:40;;;;;;;2.10;2.00;;;;;;;;;;5033502;28;20455;-61
2023/07/27 00:05:07;;;;;;;2.30;1.80;;;;;;;;;;5033308;28;20462;-61
2023/07/27 00:07:34;;;;;;;3.50;2.03;;;;;;;;;;5033242;28;20487;-61
2023/07/27 00:10:01;;;;;;;2.33;2.13;;;;;;;;;;5033172;28;20495;-61
2023/07/27 00:12:29;;;;;;;2.50;2.30;;;;;;;;;;5033169;28;20550;-61
2023/07/27 00:14:56;;;;;;;2.50;2.30;;;;;;;;;;5033044;28;20510;-61
2023/07/27 00:17:23;;;;;;;2.10;2.00;;;;;;;;;;5032436;28;20451;-61
2023/07/27 00:19:50;;;;;;;2.33;2.17;;;;;;;;;;5033071;28;20487;-61
2023/07/27 00:22:17;;;;;;;2.07;1.97;;;;;;;;;;5033152;28;20451;-61
2023/07/27 00:24:44;;;;;;;2.20;2.10;;;;;;;;;;5033042;28;20455;-61
2023/07/27 00:27:11;;;;;;;3.53;2.60;;;;;;;;;;5033006;28;20841;-61
2023/07/27 00:29:39;;;;;;;2.20;2.00;;;;;;;;;;5032795;28;20551;-61
2023/07/27 00:32:07;;;;;;;2.30;2.20;;;;;;;;;;5033080;28;20455;-61
2023/07/27 00:34:34;;;;;;;2.07;1.90;;;;;;;;;;5032904;28;20475;-61
2023/07/27 00:37:01;;;;;;;2.70;2.50;;;;;;;;;;5032870;28;20451;-61
2023/07/27 00:39:28;;;;;;;2.03;1.93;;;;;;;;;;5033092;28;20772;-61
2023/07/27 00:41:54;;;;;;;1.97;1.87;;;;;;;;;;5033282;28;20450;-61
2023/07/27 00:44:21;;;;;;;2.07;1.97;;;;;;;;;;5032952;28;20451;-61
2023/07/27 00:46:51;;;;;;;1.93;1.83;;;;;;;;;;5032884;28;20538;-61
2023/07/27 00:49:18;;;;;;;2.10;2.00;;;;;;;;;;5032842;28;20565;-61
2023/07/27 00:51:45;;;;;;;2.40;2.20;;;;;;;;;;5032869;28;20451;-61
2023/07/27 00:54:13;;;;;;;4.30;2.07;;;;;;;;;;5032583;28;20546;-61
2023/07/27 00:56:40;;;;;;;1.87;1.77;;;;;;;;;;5032513;28;20831;-61
2023/07/27 00:59:07;;;;;;;1.97;1.80;;;;;;;;;;5032811;28;20458;-61
2023/07/27 01:01:34;;;;;;;2.40;2.30;;;;;;;;;;5032821;28;20878;-61
2023/07/27 01:04:03;;;;;;;2.87;2.77;;;;;;;;;;5032625;28;20451;-61
2023/07/27 01:06:30;;;;;;;2.30;2.10;;;;;;;;;;5032580;28;20487;-61
2023/07/27 01:08:57;;;;;;;2.47;2.27;;;;;;;;;;5032433;28;20969;-61
2023/07/27 01:11:27;;;;;;;2.10;2.00;;;;;;;;;;5032727;28;20450;-61
2023/07/27 01:13:58;;;;;;;2.77;2.57;;;;;;;;;;5032695;28;20809;-61
2023/07/27 01:16:28;;;;;;;2.37;2.27;;;;;;;;;;5032345;28;20914;-61
2023/07/27 01:18:58;;;;;;;1.90;1.80;;;;;;;;;;5032465;28;20534;-61
2023/07/27 01:21:30;;;;;;;8.03;2.67;;;;;;;;;;5032405;28;20552;-61
2023/07/27 01:24:12;;;;;;;3.03;2.83;;;;;;;;;;5032645;28;20545;-61
2023/07/27 01:26:47;;;;;;;2.93;2.73;;;;;;;;;;5032538;28;20454;-61
2023/07/27 01:29:21;;;;;;;3.30;2.97;;;;;;;;;;5033616;28;20456;-61
2023/07/27 01:31:52;;;;;;;2.60;2.40;;;;;;;;;;5036074;28;20485;-61
2023/07/27 01:34:21;;;;;;;2.70;2.60;;;;;;;;;;5036496;28;20454;-61
2023/07/27 01:36:51;;;;;;;3.10;2.37;;;;;;;;;;5036053;28;20494;-61
2023/07/27 01:39:18;;;;;;;3.30;2.90;;;;;;;;;;5036026;28;20449;-61
2023/07/27 01:41:46;;;;;;;2.93;2.73;;;;;;;;;;5036181;28;21024;-61
2023/07/27 01:44:14;;;;;;;2.93;2.70;;;;;;;;;;5035766;28;20493;-61
2023/07/27 01:46:41;;;;;;;2.07;1.97;;;;;;;;;;5035923;28;20504;-61
2023/07/27 01:49:10;;;;;;;2.60;2.50;;;;;;;;;;5035852;28;20450;-61
2023/07/27 01:51:38;;;;;;;2.60;2.40;;;;;;;;;;5035800;28;20466;-61
2023/07/27 01:54:05;;;;;;;2.77;2.57;;;;;;;;;;5035659;28;20753;-61
2023/07/27 01:56:33;;;;;;;2.70;2.50;;;;;;;;;;5035404;28;20497;-61
2023/07/27 01:59:01;;;;;;;3.20;2.97;;;;;;;;;;5035401;28;20451;-61
2023/07/27 02:01:28;;;;;;;3.30;2.83;;;;;;;;;;5035733;28;20450;-61
2023/07/27 02:03:56;;;;;;;2.63;2.43;;;;;;;;;;5035641;28;20464;-61
2023/07/27 02:06:25;;;;;;;2.50;2.40;;;;;;;;;;5035535;28;20454;-61
2023/07/27 02:08:51;;;;;;;3.33;3.10;;;;;;;;;;5035422;28;20450;-61
2023/07/27 02:11:20;;;;;;;2.57;2.10;;;;;;;;;;5035300;28;20451;-61
2023/07/27 02:13:49;;;;;;;2.40;2.30;;;;;;;;;;5035498;28;20537;-61
2023/07/27 02:16:21;;;;;;;5.97;2.80;;;;;;;;;;5035317;28;20485;-61
2023/07/27 02:18:49;;;;;;;3.40;3.17;;;;;;;;;;5035389;28;20537;-61
2023/07/27 02:21:16;;;;;;;2.97;2.77;;;;;;;;;;5035181;28;20460;-61
2023/07/27 02:23:45;;;;;;;3.17;2.90;;;;;;;;;;5035109;28;20477;-61
2023/07/27 02:26:12;;;;;;;3.57;3.27;;;;;;;;;;5034973;28;20456;-61
2023/07/27 02:28:39;;;;;;;3.30;2.77;;;;;;;;;;5035163;28;20822;-61
2023/07/27 02:31:05;;;;;;;2.93;2.73;;;;;;;;;;5034925;28;20989;-61
2023/07/27 02:33:32;;;;;;;2.90;2.70;;;;;;;;;;5034931;28;20456;-61
2023/07/27 02:35:59;;;;;;;2.90;2.70;;;;;;;;;;5034773;28;20999;-61
2023/07/27 02:38:26;;;;;;;3.37;3.07;;;;;;;;;;5034997;28;20452;-61
2023/07/27 02:40:55;;;;;;;2.83;2.73;;;;;;;;;;5034001;28;20480;-61
2023/07/27 02:43:22;;;;;;;3.13;2.93;;;;;;;;;;5034838;28;20456;-61
2023/07/27 02:45:49;;;;;;;3.43;2.90;;;;;;;;;;5034796;28;20545;-61
2023/07/27 02:48:16;;;;;;;3.80;3.50;;;;;;;;;;5034719;28;20550;-61
2023/07/27 02:50:50;;;;;;;5.23;3.60;;;;;;;;;;5034548;28;20454;-61
2023/07/27 02:53:17;;;;;;;3.40;3.10;;;;;;;;;;5034527;28;20453;-61
2023/07/27 02:55:44;;;;;;;3.67;3.37;;;;;;;;;;5034583;28;20501;-61
2023/07/27 02:58:12;;;;;;;3.60;3.30;;;;;;;;;;5034541;28;20840;-61
2023/07/27 03:00:39;;;;;;;3.53;3.33;;;;;;;;;;5034517;28;20450;-61
2023/07/27 03:03:06;;;;;;;3.17;2.97;;;;;;;;;;5034400;28;20455;-61
2023/07/27 03:05:33;;;;;;;3.87;3.60;;;;;;;;;;5034332;28;20454;-61
2023/07/27 03:07:59;;;;;;;2.87;2.63;;;;;;;;;;5034403;28;20517;-61
2023/07/27 03:10:26;;;;;;;4.97;3.50;;;;;;;;;;5034316;28;20457;-61
2023/07/27 03:12:53;;;;;;;3.27;3.00;;;;;;;;;;5034250;28;20481;-61
2023/07/27 03:15:22;;;;;;;3.53;3.33;;;;;;;;;;5034104;28;20473;-61
2023/07/27 03:17:48;;;;;;;3.70;3.40;;;;;;;;;;5034148;28;20454;-61
2023/07/27 03:20:15;;;;;;;3.90;3.60;;;;;;;;;;5034017;28;20889;-61
2023/07/27 03:22:42;;;;;;;3.67;3.37;;;;;;;;;;5034144;28;20884;-61
2023/07/27 03:25:10;;;;;;;3.73;3.43;;;;;;;;;;5034293;28;20540;-61
2023/07/27 03:27:36;;;;;;;3.70;3.47;;;;;;;;;;5033974;28;20813;-61
2023/07/27 03:30:04;;;;;;;3.93;3.63;;;;;;;;;;5033866;28;20453;-61
2023/07/27 03:32:32;;;;;;;3.30;3.10;;;;;;;;;;5033712;28;20461;-61
2023/07/27 03:34:59;;;;;;;4.40;4.00;;;;;;;;;;5033746;28;20545;-61
2023/07/27 03:37:26;;;;;;;3.63;3.43;;;;;;;;;;5033797;28;20508;-61
2023/07/27 03:39:53;;;;;;;4.03;3.70;;;;;;;;;;5033794;28;20805;-61
2023/07/27 03:42:20;;;;;;;6.67;3.90;;;;;;;;;;5033653;28;20562;-61
2023/07/27 03:44:47;;;;;;;3.80;3.50;;;;;;;;;;5033536;28;20465;-61
2023/07/27 03:47:14;;;;;;;3.30;3.10;;;;;;;;;;5033457;28;20496;-61
2023/07/27 03:49:42;;;;;;;3.63;3.43;;;;;;;;;;5033608;28;20456;-62
2023/07/27 03:52:09;;;;;;;4.73;4.03;;;;;;;;;;5033365;28;20452;-61
2023/07/27 03:54:36;;;;;;;4.00;3.80;;;;;;;;;;5033535;28;20822;-61
2023/07/27 03:57:03;;;;;;;3.87;3.57;;;;;;;;;;5033189;28;20490;-61
2023/07/27 03:59:30;;;;;;;4.10;3.80;;;;;;;;;;5033570;28;20543;-61
2023/07/27 04:01:57;;;;;;;4.33;4.03;;;;;;;;;;5033216;28;20450;-61
2023/07/27 04:04:24;;;;;;;3.73;3.43;;;;;;;;;;5033436;28;20454;-61
2023/07/27 04:06:52;;;;;;;4.13;3.83;;;;;;;;;;5033317;28;20476;-61
2023/07/27 04:09:19;;;;;;;4.00;3.80;;;;;;;;;;5033238;28;20446;-61
2023/07/27 04:11:46;;;;;;;4.07;3.67;;;;;;;;;;5033201;28;20970;-61
2023/07/27 04:14:13;;;;;;;4.53;4.23;;;;;;;;;;5033007;28;20879;-61
2023/07/27 04:16:40;;;;;;;4.63;3.73;;;;;;;;;;5032990;28;20815;-61
2023/07/27 04:19:07;;;;;;;4.03;3.73;;;;;;;;;;5032913;28;20945;-61
2023/07/27 04:21:34;;;;;;;4.43;4.03;;;;;;;;;;5033161;28;20546;-61
2023/07/27 04:24:02;;;;;;;3.87;3.67;;;;;;;;;;5033075;28;20541;-61
2023/07/27 04:26:30;;;;;;;4.10;3.80;;;;;;;;;;5032783;28;21004;-61
2023/07/27 04:28:57;;;;;;;4.40;4.10;;;;;;;;;;5032832;28;20454;-61
2023/07/27 04:31:24;;;;;;;4.13;3.83;;;;;;;;;;5032753;28;20942;-61
2023/07/27 04:33:51;;;;;;;6.83;3.70;;;;;;;;;;5032977;28;20451;-61
2023/07/27 04:36:18;;;;;;;4.13;3.83;;;;;;;;;;5032885;28;20476;-61
2023/07/27 04:38:45;;;;;;;6.70;3.67;;;;;;;;;;5032806;28;20482;-61
2023/07/27 04:41:13;;;;;;;3.97;3.77;;;;;;;;;;5032824;28;20459;-61
2023/07/27 04:43:40;;;;;;;3.70;3.50;;;;;;;;;;5032655;28;20457;-61
2023/07/27 04:46:07;;;;;;;4.53;3.83;;;;;;;;;;5032962;28;20942;-61
2023/07/27 04:48:34;;;;;;;4.13;3.83;;;;;;;;;;5032892;28;20486;-61
2023/07/27 04:51:01;;;;;;;4.40;4.00;;;;;;;;;;5032814;28;20549;-61
2023/07/27 04:53:28;;;;;;;3.90;3.47;;;;;;;;;;5032741;28;20549;-61
2023/07/27 04:55:55;;;;;;;4.77;4.43;;;;;;;;;;5032391;28;20480;-62
2023/07/27 04:58:23;;;;;;;6.10;4.73;;;;;;;;;;5032546;28;20562;-61
2023/07/27 05:00:53;;;;;;;3.73;3.43;;;;;;;;;;5032786;28;20447;-61
2023/07/27 05:03:20;;;;;;;4.50;4.20;;;;;;;;;;5032742;28;20456;-61
2023/07/27 05:05:47;;;;;;;7.47;4.27;;;;;;;;;;5036417;28;20451;-61
2023/07/27 05:08:14;;;;;;;4.67;4.27;;;;;;;;;;5036501;28;20450;-61
2023/07/27 05:10:41;;;;;;;4.30;3.90;;;;;;;;;;5036307;28;20889;-61
2023/07/27 05:13:08;;;;;;;3.50;3.30;;;;;;;;;;5036539;28;20463;-61
2023/07/27 05:15:37;;;;;;;4.27;3.87;;;;;;;;;;5036536;28;20475;-61
2023/07/27 05:18:04;;;;;;;3.90;3.60;;;;;;;;;;5036400;28;20981;-61
2023/07/27 05:20:30;;;;;;;3.67;3.47;;;;;;;;;;5036381;28;20895;-61
2023/07/27 05:22:57;;;;;;;4.03;3.40;;;;;;;;;;5036298;28;20457;-62
2023/07/27 05:25:24;;;;;;;4.00;3.60;;;;;;;;;;5036100;28;20459;-62
2023/07/27 05:27:51;;;;;;;3.50;3.20;;;;;;;;;;5036253;28;20483;-62
2023/07/27 05:30:18;;;;;;;4.40;4.00;;;;;;;;;;5036107;28;20871;-61
2023/07/27 05:32:46;;;;;;;3.57;3.30;;;;;;;;;;5036163;28;20457;-61
2023/07/27 05:35:13;;;;;;;6.23;3.47;;;;;;;;;;5036161;28;20450;-61
2023/07/27 05:37:46;;;;;;;3.40;3.20;;;;;;;;;;5035715;28;20488;-62
2023/07/27 05:40:13;;;;;;;3.90;3.60;;;;;;;;;;5036102;28;20458;-62
2023/07/27 05:42:40;;;;;;;3.97;3.60;;;;;;;;;;5036242;28;20458;-61
2023/07/27 05:45:07;;;;;;;4.80;3.13;;;;;;;;;;5035841;28;20520;-61
2023/07/27 05:47:34;;;;;;;3.83;3.60;;;;;;;;;;5035774;28;20854;-61
2023/07/27 05:50:03;;;;;;;4.13;2.60;;;;;;;;;;5035693;28;20558;-63
2023/07/27 05:52:30;;;;;;;2.40;2.20;;;;;;;;;;5035653;28;20447;-62
2023/07/27 05:54:57;;;;;;;2.83;2.63;;;;;;;;;;5035726;28;20538;-62
2023/07/27 05:57:24;;;;;;;2.40;2.30;;;;;;;;;;5035631;28;21067;-61
2023/07/27 05:59:51;;;;;;;2.97;2.77;;;;;;;;;;5035579;28;20462;-61
2023/07/27 06:02:18;;;;;;;3.70;3.40;;;;;;;;;;5035595;28;20483;-61
2023/07/27 06:04:44;;;;;;;2.53;2.30;;;;;;;;;;5035390;28;20495;-62
2023/07/27 06:07:13;;;;;;;3.23;2.60;;;;;;;;;;5035561;28;20542;-62
2023/07/27 06:09:40;;;;;;;2.60;2.13;;;;;;;;;;5035585;28;20896;-62
2023/07/27 06:12:11;;;;;;;2.80;1.80;;;;;;;;;;5035465;28;20980;-61
2023/07/27 06:14:38;;;;;;;2.30;2.20;;;;;;;;;;5035329;28;20455;-61
2023/07/27 06:17:06;;;;;;;2.40;2.20;;;;;;;;;;5035163;28;20507;-61
2023/07/27 06:19:33;;;;;;;2.10;2.00;;;;;;;;;;5035124;28;20459;-62
2023/07/27 06:22:00;;;;;;;2.50;2.30;;;;;;;;;;5035307;28;20462;-61
2023/07/27 06:24:28;;;;;;;3.17;1.87;;;;;;;;;;5035131;28;20533;-61
2023/07/27 06:26:55;;;;;;;2.60;2.40;;;;;;;;;;5035124;28;20558;-61
2023/07/27 06:29:22;;;;;;;2.10;2.00;;;;;;;;;;5035011;28;20912;-61
2023/07/27 06:31:49;;;;;;;3.23;1.80;;;;;;;;;;5034926;28;20828;-62
2023/07/27 06:34:16;;;;;;;2.37;2.20;;;;;;;;;;5034912;28;20460;-62
2023/07/27 06:36:43;;;;;;;2.53;2.33;;;;;;;;;;5034932;28;20919;-61
2023/07/27 06:39:10;;;;;;;2.40;1.93;;;;;;;;;;5034867;28;20452;-61
2023/07/27 06:41:38;;;;;;;2.50;2.30;;;;;;;;;;5034710;28;20547;-61
2023/07/27 06:44:05;;;;;;;2.13;2.03;;;;;;;;;;5034687;28;20462;-61
2023/07/27 06:46:32;;;;;;;2.67;2.10;;;;;;;;;;5032434;28;20526;-61
2023/07/27 06:48:59;;;;;;;2.47;1.70;;;;;;;;;;5018666;28;20454;-62
2023/07/27 06:51:26;;;;;;;4.50;2.30;;;;;;;;;;5014542;28;20491;-61
2023/07/27 06:53:53;;;;;;;2.47;2.20;;;;;;;;;;5014745;28;20459;-60
2023/07/27 06:56:21;;;;;;;2.57;2.07;;;;;;;;;;5022944;28;20476;-61
2023/07/27 06:58:50;;;;;;;2.70;1.90;;;;;;;;;;5023805;28;20820;-61
2023/07/27 07:01:16;;;;;;;1.90;1.80;;;;;;;;;;5022545;28;20535;-61
2023/07/27 07:03:43;;;;;;;3.90;2.67;;;;;;;;;;5017263;28;20442;-62
2023/07/27 07:06:10;;;;;;;2.20;2.10;;;;;;;;;;5014630;28;20457;-61
2023/07/27 07:08:37;;;;;;;2.27;2.07;;;;;;;;;;5030778;28;20498;-61
2023/07/27 07:11:05;;;;;;;2.60;2.00;;;;;;;;;;5025303;28;20453;-59
2023/07/27 07:13:32;;;;;;;2.70;2.50;;;;;;;;;;5021079;28;20892;-58
2023/07/27 07:16:00;;;;;;;2.50;2.30;;;;;;;;;;5023976;28;20535;-59
2023/07/27 07:18:27;;;;;;;2.70;2.50;;;;;;;;;;5013905;28;20543;-59
2023/07/27 07:20:54;;;;;;;3.00;2.30;;;;;;;;;;5014181;28;20885;-59
2023/07/27 07:23:21;;;;;;;3.40;2.80;;;;;;;;;;5032382;28;20877;-58
2023/07/27 07:25:48;;;;;;;2.50;2.30;;;;;;;;;;5023442;28;20861;-59
2023/07/27 07:28:15;;;;;;;2.13;1.93;;;;;;;;;;5021945;28;20467;-59
2023/07/27 07:30:42;;;;;;;2.33;2.23;;;;;;;;;;5022913;28;20862;-61
2023/07/27 07:33:13;;;;;;;4.37;2.47;;;;;;;;;;5018258;28;20453;-59
2023/07/27 07:35:40;;;;;;;3.83;2.53;;;;;;;;;;5013951;28;20447;-59
2023/07/27 07:38:07;;;;;;;3.10;2.07;;;;;;;;;;5014554;28;20485;-57
2023/07/27 07:40:34;;;;;;;2.07;1.87;;;;;;;;;;5023066;28;20544;-58
2023/07/27 07:43:01;;;;;;;2.63;2.30;;;;;;;;;;5024490;28;20481;-61
2023/07/27 07:45:28;;;;;;;2.20;2.10;;;;;;;;;;5022656;28;20545;-59
2023/07/27 07:47:55;;;;;;;4.13;2.80;;;;;;;;;;5022886;28;20949;-59
2023/07/27 07:50:24;;;;;;;2.00;1.90;;;;;;;;;;5022907;28;20480;-60
2023/07/27 07:52:53;;;;;;;2.73;2.53;;;;;;;;;;5022623;28;20543;-58
2023/07/27 07:55:20;;;;;;;2.50;2.40;;;;;;;;;;5022095;28;20446;-59
2023/07/27 07:57:47;;;;;;;2.97;2.77;;;;;;;;;;5023767;28;20580;-59
2023/07/27 08:00:14;;;;;;;2.80;2.60;;;;;;;;;;5033356;28;20453;-60
2023/07/27 08:02:42;;;;;;;2.60;2.40;;;;;;;;;;5027845;28;20485;-59
2023/07/27 08:05:09;;;;;;;2.57;2.47;;;;;;;;;;5013475;28;20523;-58
2023/07/27 08:07:37;;;;;;;3.70;2.53;;;;;;;;;;5017052;28;20980;-58
2023/07/27 08:10:06;;;;;;;2.53;2.33;;;;;;;;;;5031846;28;20540;-58
2023/07/27 08:12:33;;;;;;;2.70;2.50;;;;;;;;;;5013578;28;20447;-59
2023/07/27 08:15:02;;;;;;;2.60;2.40;;;;;;;;;;5013496;28;20818;-59
2023/07/27 08:17:29;;;;;;;3.50;2.93;;;;;;;;;;5012888;28;20504;-58
2023/07/27 08:19:57;;;;;;;2.33;2.17;;;;;;;;;;5013854;28;20465;-58
2023/07/27 08:22:24;;;;;;;2.67;2.50;;;;;;;;;;5014772;28;20490;-58
2023/07/27 08:24:53;;;;;;;2.83;2.63;;;;;;;;;;5026776;28;20460;-58
2023/07/27 08:27:19;;;;;;;2.93;2.47;;;;;;;;;;5032576;28;20899;-59
2023/07/27 08:29:46;;;;;;;3.13;2.90;;;;;;;;;;5032667;28;20477;-59
2023/07/27 08:32:14;;;;;;;3.20;2.83;;;;;;;;;;5032760;28;20888;-60
2023/07/27 08:34:41;;;;;;;3.10;2.87;;;;;;;;;;5032400;28;20507;-60
2023/07/27 08:37:08;;;;;;;3.93;3.20;;;;;;;;;;5018726;28;20482;-59
2023/07/27 08:39:35;;;;;;;4.23;2.97;;;;;;;;;;5029847;28;20481;-59
2023/07/27 08:42:03;;;;;;;2.73;2.53;;;;;;;;;;5032945;28;20964;-58
2023/07/27 08:44:30;;;;;;;5.63;3.07;;;;;;;;;;5033109;28;20450;-58
2023/07/27 08:46:58;;;;;;;3.03;2.83;;;;;;;;;;5023454;28;20483;-59
2023/07/27 08:49:25;;;;;;;4.33;3.40;;;;;;;;;;5018305;28;20781;-58
2023/07/27 08:51:52;;;;;;;2.60;2.40;;;;;;;;;;5023143;28;20941;-58
2023/07/27 08:54:19;;;;;;;3.50;2.80;;;;;;;;;;5018210;28;20455;-59
2023/07/27 08:56:53;;;;;;;2.77;2.53;;;;;;;;;;5013169;28;20560;-61
2023/07/27 08:59:24;;;;;;;3.20;3.00;;;;;;;;;;5012926;28;20796;-57
2023/07/27 09:01:50;;;;;;;2.80;2.50;;;;;;;;;;5012582;28;20940;-57
2023/07/27 09:04:17;;;;;;;5.33;3.33;;;;;;;;;;5012949;28;20545;-57
2023/07/27 09:06:45;;;;;;;4.80;2.63;;;;;;;;;;5028057;28;20533;-56
2023/07/27 09:09:13;;;;;;;2.90;2.70;;;;;;;;;;5032499;28;20448;-58
2023/07/27 09:11:40;;;;;;;3.10;2.90;;;;;;;;;;5032416;28;20487;-58
2023/07/27 09:14:07;;;;;;;6.00;2.90;;;;;;;;;;5024261;28;20448;-58
2023/07/27 09:16:36;;;;;;;3.27;2.60;;;;;;;;;;5021915;28;20536;-59
2023/07/27 09:19:03;;;;;;;2.77;2.57;;;;;;;;;;5021061;28;20569;-58
2023/07/27 09:21:38;;;;;;;5.47;3.30;;;;;;;;;;5020611;28;20450;-58
2023/07/27 09:24:12;;;;;;;2.50;2.40;;;;;;;;;;5012160;28;20957;-58
2023/07/27 09:26:45;;;;;;;5.47;3.00;;;;;;;;;;5011759;28;20448;-57
2023/07/27 09:29:12;;;;;;;3.20;3.00;;;;;;;;;;5012673;28;20461;-58
2023/07/27 09:31:47;;;;;;;3.30;2.53;;;;;;;;;;5012582;28;20450;-58
2023/07/27 09:34:14;;;;;;;3.30;2.80;;;;;;;;;;5012883;28;20456;-60
2023/07/27 09:36:41;;;;;;;4.60;2.60;;;;;;;;;;5012450;28;20946;-60
2023/07/27 09:39:08;;;;;;;3.30;3.00;;;;;;;;;;5012491;28;20489;-59
2023/07/27 09:41:37;;;;;;;3.23;2.87;;;;;;;;;;5012107;28;20553;-59
2023/07/27 09:44:09;;;;;;;4.30;3.00;;;;;;;;;;5012670;28;20468;-58
2023/07/27 09:46:36;;;;;;;3.33;3.03;;;;;;;;;;5012477;28;20548;-59
2023/07/27 09:49:04;;;;;;;3.63;2.90;;;;;;;;;;5012227;28;20815;-59
2023/07/27 09:51:33;;;;;;;4.80;3.67;;;;;;;;;;5015291;28;20863;-58
2023/07/27 09:54:01;;;;;;;3.50;3.20;;;;;;;;;;5015577;28;20504;-56
2023/07/27 09:56:34;;;;;;;3.37;3.17;;;;;;;;;;5014652;28;20989;-59
2023/07/27 09:59:01;;;;;;;3.87;3.50;;;;;;;;;;5015766;28;20572;-59
2023/07/27 10:01:28;;;;;;;3.27;2.53;;;;;;;;;;5015634;28;20459;-60
2023/07/27 10:03:58;;;;;;;4.50;3.03;;;;;;;;;;5015749;28;20549;-59
2023/07/27 10:06:27;;;;;;;3.47;3.00;;;;;;;;;;5015541;28;20453;-59
2023/07/27 10:08:55;;;;;;;3.10;2.90;;;;;;;;;;5014237;28;20450;-59
2023/07/27 10:11:29;;;;;;;3.27;2.97;;;;;;;;;;5015597;28;20450;-59
2023/07/27 10:13:57;;;;;;;4.47;3.50;;;;;;;;;;5015574;28;20492;-60
2023/07/27 10:16:27;;;;;;;4.27;2.67;;;;;;;;;;5015255;28;20453;-60
2023/07/27 10:18:55;;;;;;;3.27;3.00;;;;;;;;;;5014776;28;20482;-59
2023/07/27 10:21:29;;;;;;;3.50;3.30;;;;;;;;;;5025907;28;20455;-59
2023/07/27 10:23:58;;;;;;;6.03;4.43;;;;;;;;;;5025597;28;20864;-59
2023/07/27 10:26:43;;;;;;;4.87;3.00;;;;;;;;;;5020398;28;20489;-59
2023/07/27 10:29:14;;;;;;;4.90;2.90;;;;;;;;;;5014978;28;20461;-59
2023/07/27 10:31:43;;;;;;;3.00;2.80;;;;;;;;;;5020291;28;20453;-62
2023/07/27 10:34:14;;;;;;;3.20;2.70;;;;;;;;;;5015593;28;20541;-60
2023/07/27 10:36:52;;;;;;;3.50;3.20;;;;;;;;;;5015005;28;20453;-60
2023/07/27 10:39:20;;;;;;;3.73;3.13;;;;;;;;;;5014875;28;20485;-59
2023/07/27 10:42:00;;;;;;;4.50;3.03;;;;;;;;;;5014952;28;20453;-60
2023/07/27 10:44:28;;;;;;;3.07;2.87;;;;;;;;;;5014914;28;20458;-61
2023/07/27 10:46:56;;;;;;;4.27;2.70;;;;;;;;;;5018877;28;20450;-59
2023/07/27 10:49:23;;;;;;;3.60;3.40;;;;;;;;;;5023634;28;21016;-57
2023/07/27 10:51:50;;;;;;;4.70;2.97;;;;;;;;;;5023189;28;20806;-58
2023/07/27 10:54:18;;;;;;;3.60;3.30;;;;;;;;;;5021371;28;20871;-59
2023/07/27 10:56:45;;;;;;;6.27;4.23;;;;;;;;;;5024706;28;21007;-59
2023/07/27 10:59:13;;;;;;;3.57;2.97;;;;;;;;;;5023915;28;21048;-59
2023/07/27 11:01:40;;;;;;;4.10;3.40;;;;;;;;;;5024128;28;20450;-59
2023/07/27 11:04:07;;;;;;;2.60;2.40;;;;;;;;;;5023120;28;20471;-60
2023/07/27 11:06:41;;;;;;;4.80;3.40;;;;;;;;;;5021163;28;20449;-59
2023/07/27 11:09:11;;;;;;;4.20;3.10;;;;;;;;;;5022056;28;20449;-60
2023/07/27 11:11:39;;;;;;;3.00;2.80;;;;;;;;;;5022910;28;20474;-59
2023/07/27 11:14:07;;;;;;;2.93;2.73;;;;;;;;;;5020937;28;20447;-59
2023/07/27 11:16:37;;;;;;;2.90;2.60;;;;;;;;;;5025446;28;20477;-59
2023/07/27 11:19:04;;;;;;;3.00;2.70;;;;;;;;;;5022516;28;20529;-59
2023/07/27 11:21:32;;;;;;;3.03;2.60;;;;;;;;;;5023471;28;20787;-58
2023/07/27 11:23:59;;;;;;;2.80;2.60;;;;;;;;;;4999599;28;20883;-58
2023/07/27 11:26:26;;;;;;;3.00;2.80;;;;;;;;;;5014207;28;20454;-58
2023/07/27 11:28:56;;;;;;;2.50;2.30;;;;;;;;;;5014233;28;20810;-58
2023/07/27 11:31:23;;;;;;;2.63;2.43;;;;;;;;;;5014015;28;20473;-60
2023/07/27 11:33:50;;;;;;;2.87;2.67;;;;;;;;;;5013804;28;20450;-59
2023/07/27 11:36:17;;;;;;;2.50;2.30;;;;;;;;;;5013848;28;20456;-58
2023/07/27 11:38:44;;;;;;;2.60;2.40;;;;;;;;;;5030117;28;20519;-59
2023/07/27 11:41:11;;;;;;;2.40;2.20;;;;;;;;;;5030277;28;20450;-59
2023/07/27 11:43:39;;;;;;;3.47;2.50;;;;;;;;;;5017528;28;20450;-59
2023/07/27 11:46:08;;;;;;;2.80;2.60;;;;;;;;;;5033511;28;20450;-58
2023/07/27 11:48:35;;;;;;;3.73;2.57;;;;;;;;;;5033645;28;20456;-57
2023/07/27 11:51:02;;;;;;;2.67;2.57;;;;;;;;;;5031906;28;20460;-58
2023/07/27 11:53:29;;;;;;;5.50;2.70;;;;;;;;;;5023661;28;20442;-58
2023/07/27 11:55:57;;;;;;;2.60;2.50;;;;;;;;;;5003536;28;20787;-58
2023/07/27 11:58:27;;;;;;;2.73;2.53;;;;;;;;;;5020400;28;20540;-58
2023/07/27 12:00:56;;;;;;;3.00;2.70;;;;;;;;;;5013493;28;20818;-59
2023/07/27 12:03:25;;;;;;;4.17;2.97;;;;;;;;;;5023736;28;20486;-58
2023/07/27 12:05:55;;;;;;;2.77;2.57;;;;;;;;;;5029820;28;20431;-58
2023/07/27 12:08:22;;;;;;;2.77;2.53;;;;;;;;;;5013172;28;20545;-58
2023/07/27 12:10:53;;;;;;;3.43;3.07;;;;;;;;;;5029592;28;20481;-58
2023/07/27 12:13:22;;;;;;;3.60;3.30;;;;;;;;;;5032690;28;20449;-58
2023/07/27 12:15:56;;;;;;;3.23;2.70;;;;;;;;;;5032739;28;20452;-58
2023/07/27 12:18:25;;;;;;;3.73;3.30;;;;;;;;;;5020269;28;20486;-58
2023/07/27 12:20:52;;;;;;;3.93;3.63;;;;;;;;;;5021372;28;20446;-57
2023/07/27 12:23:19;;;;;;;3.80;3.50;;;;;;;;;;5022909;28;20456;-58
2023/07/27 12:25:46;;;;;;;3.50;3.30;;;;;;;;;;5020651;28;20544;-58
2023/07/27 12:28:13;;;;;;;4.40;4.00;;;;;;;;;;5020793;28;20878;-59
2023/07/27 12:30:40;;;;;;;3.83;3.57;;;;;;;;;;5029656;28;20453;-59
2023/07/27 12:33:07;;;;;;;5.00;3.60;;;;;;;;;;5032644;28;20477;-59
2023/07/27 12:35:35;;;;;;;4.43;4.07;;;;;;;;;;5032553;28;20449;-59
2023/07/27 12:38:02;;;;;;;3.50;3.20;;;;;;;;;;5032463;28;20807;-59
2023/07/27 12:40:29;;;;;;;3.70;3.50;;;;;;;;;;5032661;28;20544;-59
2023/07/27 12:42:57;;;;;;;4.20;3.90;;;;;;;;;;5032731;28;20489;-59
2023/07/27 12:45:26;;;;;;;4.73;4.33;;;;;;;;;;5032837;28;20811;-59
2023/07/27 12:47:53;;;;;;;4.60;4.07;;;;;;;;;;5032614;28;20456;-59
2023/07/27 12:50:20;;;;;;;4.67;4.27;;;;;;;;;;5032460;28;20492;-59
2023/07/27 12:52:49;;;;;;;3.50;3.20;;;;;;;;;;5032681;28;20783;-59
2023/07/27 12:55:17;;;;;;;4.80;4.27;;;;;;;;;;5032557;28;20883;-59
2023/07/27 12:57:44;;;;;;;7.10;3.37;;;;;;;;;;5032336;28;20470;-59
2023/07/27 13:00:13;;;;;;;5.00;4.07;;;;;;;;;;5031963;28;20477;-59
2023/07/27 13:02:41;;;;;;;3.93;3.47;;;;;;;;;;5020466;28;20929;-59
2023/07/27 13:05:12;;;;;;;3.40;3.10;;;;;;;;;;5021353;28;20458;-58
2023/07/27 13:07:39;;;;;;;4.33;4.03;;;;;;;;;;5021417;28;20449;-59
2023/07/27 13:10:08;;;;;;;6.67;4.27;;;;;;;;;;5023357;28;20980;-61
2023/07/27 13:12:35;;;;;;;3.97;3.67;;;;;;;;;;5021078;28;20454;-58
2023/07/27 13:15:02;;;;;;;4.40;4.00;;;;;;;;;;5014455;28;21037;-59
2023/07/27 13:17:29;;;;;;;4.60;4.20;;;;;;;;;;5032477;28;20457;-58
2023/07/27 13:19:56;;;;;;;5.73;4.47;;;;;;;;;;5025011;28;20572;-59
2023/07/27 13:22:23;;;;;;;5.10;4.67;;;;;;;;;;5022244;28;20966;-59
2023/07/27 13:24:50;;;;;;;5.57;3.30;;;;;;;;;;5021731;28;20571;-59
2023/07/27 13:27:18;;;;;;;4.53;4.23;;;;;;;;;;5026324;28;20455;-59
2023/07/27 13:29:45;;;;;;;4.57;4.17;;;;;;;;;;5026395;28;20469;-59
2023/07/27 13:32:12;;;;;;;4.17;3.87;;;;;;;;;;5024568;28;20449;-59
2023/07/27 13:34:39;;;;;;;4.37;3.97;;;;;;;;;;5025906;28;20442;-58
2023/07/27 13:37:07;;;;;;;4.17;3.77;;;;;;;;;;5026422;28;20825;-59
2023/07/27 13:39:35;;;;;;;3.57;3.27;;;;;;;;;;5024284;28;20497;-58
2023/07/27 13:42:02;;;;;;;4.80;4.17;;;;;;;;;;5025329;28;20856;-59
2023/07/27 13:44:31;;;;;;;4.63;4.23;;;;;;;;;;5026421;28;21157;-59
2023/07/27 13:46:58;;;;;;;4.83;4.43;;;;;;;;;;5015494;28;20485;-59
2023/07/27 13:49:25;;;;;;;3.57;3.37;;;;;;;;;;5015403;28;20439;-59
2023/07/27 13:51:51;;;;;;;4.03;3.60;;;;;;;;;;5015361;28;20446;-59
2023/07/27 13:54:18;;;;;;;4.33;4.03;;;;;;;;;;5016016;28;20450;-59
2023/07/27 13:56:45;;;;;;;4.77;4.37;;;;;;;;;;5015188;28;20473;-57
2023/07/27 13:59:12;;;;;;;5.43;4.10;;;;;;;;;;5015219;28;20485;-57
2023/07/27 14:01:41;;;;;;;4.47;4.07;;;;;;;;;;5015110;28;20512;-58
2023/07/27 14:04:08;;;;;;;4.97;3.87;;;;;;;;;;5014992;28;20451;-59
2023/07/27 14:06:35;;;;;;;4.73;4.33;;;;;;;;;;5015648;28;20496;-59
2023/07/27 14:09:02;;;;;;;4.70;4.30;;;;;;;;;;5015633;28;20549;-59
2023/07/27 14:11:31;;;;;;;5.60;3.63;;;;;;;;;;5014880;28;21026;-59
2023/07/27 14:13:58;;;;;;;4.30;4.00;;;;;;;;;;5015546;28;20453;-59
2023/07/27 14:16:25;;;;;;;4.50;4.10;;;;;;;;;;5015153;28;20458;-59
2023/07/27 14:18:53;;;;;;;4.50;4.20;;;;;;;;;;5015848;28;20572;-59
2023/07/27 14:21:20;;;;;;;3.70;3.40;;;;;;;;;;5015545;28;20541;-59
2023/07/27 14:23:48;;;;;;;5.73;5.17;;;;;;;;;;5015678;28;20486;-58
2023/07/27 14:26:15;;;;;;;4.67;4.37;;;;;;;;;;5015321;28;20454;-58
2023/07/27 14:28:42;;;;;;;6.37;5.20;;;;;;;;;;5015205;28;20953;-58
2023/07/27 14:31:09;;;;;;;4.83;4.40;;;;;;;;;;5015031;28;20504;-58
2023/07/27 14:33:36;;;;;;;3.60;3.30;;;;;;;;;;5015363;28;20454;-58
2023/07/27 14:36:05;;;;;;;3.70;3.50;;;;;;;;;;5014513;28;20453;-59
2023/07/27 14:38:32;;;;;;;3.87;3.57;;;;;;;;;;5014718;28;20454;-59
2023/07/27 14:40:59;;;;;;;3.80;3.60;;;;;;;;;;5014982;28;20484;-58
2023/07/27 14:43:26;;;;;;;3.93;3.63;;;;;;;;;;5014806;28;20787;-59
2023/07/27 14:45:52;;;;;;;3.73;3.43;;;;;;;;;;5014776;28;20974;-58